createdAt,value
2023-07-02T00:00:32.013Z,5.20
2023-07-02T00:03:01.696Z,6.10
2023-07-02T00:05:29.534Z,6.53
2023-07-02T00:07:57.356Z,6.88
2023-07-02T00:10:25.698Z,6.75
2023-07-02T00:12:54.907Z,6.47
2023-07-02T00:15:22.689Z,7.72
2023-07-02T00:17:50.619Z,7.63
2023-07-02T00:20:18.607Z,8.43
2023-07-02T00:22:47.542Z,8.00
2023-07-02T00:25:16.231Z,7.43
2023-07-02T00:27:44.117Z,7.93
2023-07-02T00:30:13.974Z,7.30
2023-07-02T00:32:41.859Z,9.18
2023-07-02T00:35:09.928Z,9.00
2023-07-02T00:37:38.177Z,7.28
2023-07-02T00:40:07.793Z,8.68
2023-07-02T00:42:35.560Z,8.20
2023-07-02T00:45:04.253Z,7.05
2023-07-02T00:47:36.163Z,8.32
2023-07-02T00:50:04.757Z,6.53
2023-07-02T00:52:32.583Z,7.10
2023-07-02T00:55:00.419Z,6.82
2023-07-02T00:57:30.891Z,8.30
2023-07-02T01:00:01.756Z,7.13
2023-07-02T01:02:30.918Z,7.50
2023-07-02T01:05:01.835Z,8.65
2023-07-02T01:07:30.301Z,7.82
2023-07-02T01:09:58.683Z,8.15
2023-07-02T01:12:29.500Z,6.68
2023-07-02T01:15:01.492Z,7.35
2023-07-02T01:17:42.823Z,6.72
2023-07-02T01:20:14.386Z,6.28
2023-07-02T01:22:42.884Z,6.43
2023-07-02T01:25:10.994Z,6.70
2023-07-02T01:27:39.703Z,7.05
2023-07-02T01:30:11.012Z,6.50
2023-07-02T01:32:40.101Z,6.80
2023-07-02T01:35:08.933Z,7.78
2023-07-02T01:37:39.690Z,7.32
2023-07-02T01:40:09.220Z,7.55
2023-07-02T01:42:37.710Z,7.70
2023-07-02T01:45:06.236Z,8.07
2023-07-02T01:47:34.170Z,8.63
2023-07-02T01:50:02.043Z,7.38
2023-07-02T01:52:33.994Z,7.10
2023-07-02T01:55:05.193Z,6.05
2023-07-02T01:57:33.143Z,7.82
2023-07-02T02:00:00.900Z,8.13
2023-07-02T02:02:28.932Z,8.25
2023-07-02T02:04:58.090Z,7.47
2023-07-02T02:07:27.245Z,8.27
2023-07-02T02:09:55.318Z,8.00
2023-07-02T02:12:24.540Z,8.50
2023-07-02T02:14:53.246Z,7.57
2023-07-02T02:17:21.136Z,8.43
2023-07-02T02:19:48.930Z,8.02
2023-07-02T02:22:16.949Z,8.02
2023-07-02T02:24:44.806Z,8.30
2023-07-02T02:27:12.534Z,7.65
2023-07-02T02:29:41.768Z,7.95
2023-07-02T02:32:10.008Z,7.75
2023-07-02T02:34:38.152Z,8.02
2023-07-02T02:37:06.250Z,9.90
2023-07-02T02:39:34.248Z,8.57
2023-07-02T02:42:02.386Z,8.45
2023-07-02T02:44:30.609Z,8.73
2023-07-02T02:47:00.950Z,8.07
2023-07-02T02:49:31.118Z,7.82
2023-07-02T02:51:58.943Z,8.93
2023-07-02T02:54:26.672Z,8.80
2023-07-02T02:56:54.533Z,8.30
2023-07-02T02:59:22.857Z,9.30
2023-07-02T03:01:52.552Z,9.75
2023-07-02T03:04:25.970Z,8.38
2023-07-02T03:06:54.645Z,9.63
2023-07-02T03:09:22.444Z,8.65
2023-07-02T03:11:50.537Z,9.05
2023-07-02T03:14:18.842Z,7.72
2023-07-02T03:16:47.624Z,8.75
2023-07-02T03:19:17.089Z,7.72
2023-07-02T03:21:46.742Z,7.35
2023-07-02T03:24:14.592Z,9.50
2023-07-02T03:26:42.646Z,9.48
2023-07-02T03:29:11.074Z,8.95
2023-07-02T03:31:38.848Z,8.77
2023-07-02T03:34:11.355Z,9.73
2023-07-02T03:36:39.233Z,8.85
2023-07-02T03:39:10.488Z,8.88
2023-07-02T03:41:39.214Z,9.23
2023-07-02T03:44:07.097Z,10.18
2023-07-02T03:46:35.296Z,8.73
2023-07-02T03:49:04.093Z,8.90
2023-07-02T03:51:32.081Z,9.70
2023-07-02T03:54:00.161Z,9.07
2023-07-02T03:56:29.279Z,10.52
2023-07-02T03:58:57.121Z,9.50
2023-07-02T04:01:25.114Z,10.13
2023-07-02T04:03:54.433Z,9.13
2023-07-02T04:06:22.311Z,9.43
2023-07-02T04:08:50.352Z,9.60
2023-07-02T04:11:18.169Z,10.40
2023-07-02T04:13:47.552Z,10.40
2023-07-02T04:16:15.465Z,9.50
2023-07-02T04:18:43.323Z,7.95
2023-07-02T04:21:11.676Z,7.35
2023-07-02T04:23:39.472Z,7.18
2023-07-02T04:26:32.497Z,6.57
2023-07-02T04:28:57.273Z,5.70
2023-07-02T04:31:25.484Z,6.30
2023-07-02T04:33:53.385Z,6.90
2023-07-02T04:36:21.218Z,6.85
2023-07-02T04:38:49.154Z,6.10
2023-07-02T04:41:17.177Z,5.72
2023-07-02T04:43:46.414Z,6.88
2023-07-02T04:46:17.594Z,5.82
2023-07-02T04:48:45.513Z,5.43
2023-07-02T04:51:13.327Z,6.72
2023-07-02T04:53:41.305Z,6.38
2023-07-02T04:56:09.049Z,5.97
2023-07-02T04:58:36.865Z,5.60
2023-07-02T05:01:04.702Z,5.72
2023-07-02T05:03:33.904Z,6.55
2023-07-02T05:06:01.890Z,6.93
2023-07-02T05:08:29.670Z,6.20
2023-07-02T05:10:57.487Z,6.03
2023-07-02T05:13:25.265Z,5.45
2023-07-02T05:15:53.675Z,4.63
2023-07-02T05:18:21.467Z,5.22
2023-07-02T05:20:50.839Z,5.18
2023-07-02T05:23:18.813Z,5.65
2023-07-02T05:25:47.075Z,5.45
2023-07-02T05:28:14.928Z,5.05
2023-07-02T05:30:42.643Z,6.07
2023-07-02T05:33:11.429Z,5.75
2023-07-02T05:35:39.146Z,5.20
2023-07-02T05:38:08.526Z,5.50
2023-07-02T05:40:36.278Z,6.15
2023-07-02T05:43:04.251Z,5.28
2023-07-02T05:45:32.711Z,5.85
2023-07-02T05:48:01.007Z,5.68
2023-07-02T05:50:28.839Z,5.72
2023-07-02T05:52:56.599Z,6.00
2023-07-02T05:55:25.769Z,6.28
2023-07-02T05:57:53.538Z,5.35
2023-07-02T06:00:21.617Z,6.15
2023-07-02T06:02:49.838Z,6.47
2023-07-02T06:05:17.871Z,5.70
2023-07-02T06:07:45.697Z,6.82
2023-07-02T06:10:13.649Z,5.43
2023-07-02T06:12:44.275Z,6.10
2023-07-02T06:15:12.894Z,6.30
2023-07-02T06:17:40.795Z,5.25
2023-07-02T06:20:09.765Z,6.07
2023-07-02T06:22:37.600Z,6.13
2023-07-02T06:25:06.344Z,6.28
2023-07-02T06:27:34.090Z,6.30
2023-07-02T06:30:03.506Z,5.88
2023-07-02T06:32:31.564Z,5.85
2023-07-02T06:34:59.604Z,5.85
2023-07-02T06:37:27.418Z,6.13
2023-07-02T06:39:55.162Z,5.65
2023-07-02T06:42:22.948Z,6.30
2023-07-02T06:44:50.724Z,5.75
2023-07-02T06:47:21.680Z,6.22
2023-07-02T06:49:49.769Z,5.47
2023-07-02T06:52:17.593Z,5.47
2023-07-02T06:54:45.361Z,6.00
2023-07-02T06:57:13.190Z,6.53
2023-07-02T06:59:41.047Z,5.63
2023-07-02T07:02:09.222Z,6.05
2023-07-02T07:04:38.724Z,5.78
2023-07-02T07:07:07.065Z,6.43
2023-07-02T07:09:34.851Z,6.43
2023-07-02T07:12:02.866Z,6.30
2023-07-02T07:14:30.626Z,5.90
2023-07-02T07:16:58.724Z,6.00
2023-07-02T07:19:26.577Z,6.35
2023-07-02T07:21:55.707Z,5.88
2023-07-02T07:24:23.596Z,5.85
2023-07-02T07:26:51.386Z,6.60
2023-07-02T07:29:19.160Z,6.93
2023-07-02T07:31:47.152Z,6.43
2023-07-02T07:34:14.974Z,6.35
2023-07-02T07:36:42.820Z,6.45
2023-07-02T07:39:11.925Z,6.20
2023-07-02T07:41:39.661Z,6.68
2023-07-02T07:44:07.495Z,7.00
2023-07-02T07:46:35.379Z,5.90
2023-07-02T07:49:03.775Z,6.05
2023-07-02T07:51:31.549Z,5.85
2023-07-02T07:53:59.371Z,6.65
2023-07-02T07:56:28.531Z,6.22
2023-07-02T07:58:56.544Z,6.10
2023-07-02T08:01:24.653Z,6.05
2023-07-02T08:03:52.469Z,6.47
2023-07-02T08:06:20.320Z,6.55
2023-07-02T08:08:48.207Z,6.53
2023-07-02T08:11:16.116Z,6.95
2023-07-02T08:13:46.116Z,6.95
2023-07-02T08:16:14.419Z,5.97
2023-07-02T08:18:42.492Z,6.70
2023-07-02T08:21:10.271Z,6.28
2023-07-02T08:23:38.221Z,6.45
2023-07-02T08:26:05.998Z,6.82
2023-07-02T08:28:33.795Z,6.80
2023-07-02T08:31:03.133Z,6.15
2023-07-02T08:33:31.060Z,6.00
2023-07-02T08:35:59.239Z,6.55
2023-07-02T08:38:27.096Z,6.78
2023-07-02T08:40:54.883Z,6.13
2023-07-02T08:43:23.786Z,7.40
2023-07-02T08:45:51.861Z,6.78
2023-07-02T08:48:23.467Z,6.45
2023-07-02T08:50:52.245Z,6.35
2023-07-02T08:53:21.063Z,6.88
2023-07-02T08:55:50.300Z,6.72
2023-07-02T08:58:18.241Z,6.35
2023-07-02T09:01:07.203Z,6.57
2023-07-02T09:03:38.255Z,6.28
2023-07-02T09:06:06.827Z,6.25
2023-07-02T09:08:35.818Z,5.85
2023-07-02T09:11:08.563Z,5.88
2023-07-02T09:13:47.446Z,6.35
2023-07-02T09:16:29.756Z,5.85
2023-07-02T09:19:00.620Z,5.97
2023-07-02T09:21:29.846Z,6.55
2023-07-02T09:23:58.045Z,5.70
2023-07-02T09:26:26.090Z,5.70
2023-07-02T09:29:03.030Z,5.70
2023-07-02T09:31:30.883Z,5.80
2023-07-02T09:34:04.872Z,5.18
2023-07-02T09:36:34.998Z,6.30
2023-07-02T09:39:03.172Z,5.95
2023-07-02T09:41:30.948Z,6.18
2023-07-02T09:43:59.121Z,5.53
2023-07-02T09:46:26.986Z,5.80
2023-07-02T09:48:55.497Z,5.70
2023-07-02T09:51:26.379Z,5.57
2023-07-02T09:53:54.161Z,5.63
2023-07-02T09:56:22.550Z,6.30
2023-07-02T09:58:50.612Z,6.03
2023-07-02T10:01:18.559Z,5.78
2023-07-02T10:03:46.317Z,6.30
2023-07-02T10:06:14.111Z,5.63
2023-07-02T10:08:53.996Z,5.82
2023-07-02T10:11:21.818Z,5.32
2023-07-02T10:13:59.869Z,5.43
2023-07-02T10:16:28.662Z,5.93
2023-07-02T10:18:56.402Z,5.15
2023-07-02T10:21:24.386Z,5.82
2023-07-02T10:23:53.504Z,6.18
2023-07-02T10:26:21.718Z,5.97
2023-07-02T10:28:59.720Z,5.75
2023-07-02T10:31:28.357Z,5.13
2023-07-02T10:33:56.281Z,5.75
2023-07-02T10:36:25.498Z,4.88
2023-07-02T10:38:54.709Z,5.90
2023-07-02T10:41:27.410Z,5.78
2023-07-02T10:43:55.155Z,5.30
2023-07-02T10:46:23.752Z,5.78
2023-07-02T10:48:55.030Z,5.03
2023-07-02T10:51:23.525Z,5.15
2023-07-02T10:54:00.947Z,4.93
2023-07-02T10:56:29.428Z,5.30
2023-07-02T10:58:57.660Z,5.70
2023-07-02T11:01:27.245Z,5.43
2023-07-02T11:03:59.951Z,5.22
2023-07-02T11:06:28.309Z,5.90
2023-07-02T11:08:57.042Z,5.40
2023-07-02T11:11:26.374Z,5.60
2023-07-02T11:13:55.261Z,5.18
2023-07-02T11:16:26.510Z,5.32
2023-07-02T11:18:55.622Z,5.60
2023-07-02T11:21:23.640Z,5.03
2023-07-02T11:23:51.376Z,5.45
2023-07-02T11:26:19.122Z,5.88
2023-07-02T11:28:52.669Z,5.57
2023-07-02T11:31:27.977Z,5.20
2023-07-02T11:33:58.990Z,5.57
2023-07-02T11:36:26.931Z,5.07
2023-07-02T11:38:57.462Z,5.93
2023-07-02T11:41:25.284Z,5.68
2023-07-02T11:43:54.346Z,5.45
2023-07-02T11:46:22.176Z,5.65
2023-07-02T11:48:49.949Z,6.18
2023-07-02T11:51:17.731Z,5.10
2023-07-02T11:53:45.422Z,6.05
2023-07-02T11:56:14.207Z,5.65
2023-07-02T11:58:44.176Z,6.15
2023-07-02T12:01:13.343Z,5.68
2023-07-02T12:03:41.353Z,5.35
2023-07-02T12:06:09.158Z,5.63
2023-07-02T12:08:37.072Z,5.30
2023-07-02T12:11:04.898Z,5.15
2023-07-02T12:13:32.873Z,5.13
2023-07-02T12:16:00.705Z,5.28
2023-07-02T12:18:29.787Z,5.40
2023-07-02T12:20:57.561Z,6.00
2023-07-02T12:23:25.398Z,4.95
2023-07-02T12:25:53.120Z,5.30
2023-07-02T12:28:20.946Z,4.75
2023-07-02T12:30:48.703Z,5.50
2023-07-02T12:33:19.086Z,4.95
2023-07-02T12:35:49.456Z,5.22
2023-07-02T12:38:17.433Z,4.80
2023-07-02T12:40:45.202Z,5.07
2023-07-02T12:43:12.966Z,4.68
2023-07-02T12:45:40.675Z,4.25
2023-07-02T12:48:08.504Z,5.03
2023-07-02T12:50:36.365Z,5.20
2023-07-02T12:53:05.453Z,5.25
2023-07-02T12:55:33.397Z,4.97
2023-07-02T12:58:01.133Z,5.30
2023-07-02T13:00:28.932Z,4.88
2023-07-02T13:03:04.979Z,4.97
2023-07-02T13:05:34.051Z,5.00
2023-07-02T13:08:01.923Z,4.22
2023-07-02T13:10:31.118Z,4.80
2023-07-02T13:13:03.715Z,4.93
2023-07-02T13:15:38.031Z,4.82
2023-07-02T13:18:05.842Z,4.15
2023-07-02T13:20:33.580Z,4.43
2023-07-02T13:23:01.571Z,4.15
2023-07-02T13:25:29.317Z,4.57
2023-07-02T13:27:58.433Z,4.43
2023-07-02T13:30:28.270Z,4.63
2023-07-02T13:32:56.261Z,4.10
2023-07-02T13:35:24.100Z,4.13
2023-07-02T13:37:51.976Z,4.57
2023-07-02T13:40:19.758Z,4.68
2023-07-02T13:42:47.714Z,5.13
2023-07-02T13:45:16.856Z,4.43
2023-07-02T13:47:44.643Z,4.18
2023-07-02T13:50:12.912Z,4.85
2023-07-02T13:52:40.765Z,4.97
2023-07-02T13:55:09.224Z,4.20
2023-07-02T13:57:36.972Z,4.57
2023-07-02T14:00:07.998Z,5.00
2023-07-02T14:02:37.102Z,4.90
2023-07-02T14:05:05.571Z,4.90
2023-07-02T14:07:33.392Z,4.45
2023-07-02T14:10:01.185Z,4.95
2023-07-02T14:12:29.438Z,4.88
2023-07-02T14:14:57.197Z,5.05
2023-07-02T14:17:27.157Z,4.63
2023-07-02T14:19:55.181Z,4.90
2023-07-02T14:22:22.967Z,4.70
2023-07-02T14:24:51.002Z,4.70
2023-07-02T14:27:18.931Z,4.65
2023-07-02T14:29:48.384Z,4.93
2023-07-02T14:32:16.774Z,4.57
2023-07-02T14:34:45.980Z,4.72
2023-07-02T14:37:13.896Z,4.72
2023-07-02T14:39:43.730Z,4.68
2023-07-02T14:42:16.007Z,4.50
2023-07-02T14:44:43.730Z,4.80
2023-07-02T14:47:11.516Z,4.43
2023-07-02T14:49:39.626Z,4.80
2023-07-02T14:52:09.144Z,4.60
2023-07-02T14:54:36.972Z,4.90
2023-07-02T14:57:05.430Z,5.10
2023-07-02T14:59:33.350Z,4.28
2023-07-02T15:02:01.098Z,4.88
2023-07-02T15:04:30.704Z,4.90
2023-07-02T15:06:58.590Z,4.85
2023-07-02T15:09:27.821Z,4.30
2023-07-02T15:11:55.639Z,4.68
2023-07-02T15:14:23.535Z,4.90
2023-07-02T15:16:52.293Z,4.75
2023-07-02T15:19:20.163Z,4.85
2023-07-02T15:21:48.027Z,4.38
2023-07-02T15:24:16.974Z,4.68
2023-07-02T15:26:46.175Z,4.68
2023-07-02T15:29:13.946Z,4.60
2023-07-02T15:31:43.382Z,4.82
2023-07-02T15:34:11.097Z,4.22
2023-07-02T15:36:38.955Z,4.68
2023-07-02T15:39:07.272Z,4.68
2023-07-02T15:41:37.541Z,5.25
2023-07-02T15:44:07.246Z,5.35
2023-07-02T15:46:35.801Z,4.47
2023-07-02T15:49:03.771Z,4.13
2023-07-02T15:51:34.674Z,4.15
2023-07-02T15:54:03.524Z,4.68
2023-07-02T15:56:33.363Z,4.95
2023-07-02T15:59:01.311Z,4.68
2023-07-02T16:01:35.240Z,4.32
2023-07-02T16:04:05.534Z,4.20
2023-07-02T16:06:35.215Z,5.22
2023-07-02T16:09:03.331Z,4.75
2023-07-02T16:11:35.621Z,4.75
2023-07-02T16:14:08.779Z,4.78
2023-07-02T16:16:41.221Z,4.57
2023-07-02T16:19:10.040Z,4.43
2023-07-02T16:21:41.409Z,4.50
2023-07-02T16:24:11.878Z,5.25
2023-07-02T16:26:39.670Z,4.47
2023-07-02T16:29:07.451Z,4.32
2023-07-02T16:31:37.020Z,4.60
2023-07-02T16:34:09.017Z,4.75
2023-07-02T16:36:36.983Z,4.38
2023-07-02T16:39:04.928Z,4.00
2023-07-02T16:41:36.834Z,4.05
2023-07-02T16:44:04.785Z,3.90
2023-07-02T16:46:32.600Z,4.40
2023-07-02T16:49:01.575Z,3.92
2023-07-02T16:51:30.764Z,3.65
2023-07-02T16:53:58.582Z,4.07
2023-07-02T16:56:26.339Z,4.18
2023-07-02T16:58:54.112Z,3.97
2023-07-02T17:01:21.983Z,3.78
2023-07-02T17:03:50.156Z,3.58
2023-07-02T17:06:19.374Z,3.78
2023-07-02T17:08:48.518Z,3.97
2023-07-02T17:11:16.307Z,3.83
2023-07-02T17:13:44.121Z,3.80
2023-07-02T17:16:11.918Z,3.95
2023-07-02T17:18:39.644Z,3.45
2023-07-02T17:21:07.551Z,3.13
2023-07-02T17:23:35.402Z,3.38
2023-07-02T17:26:07.502Z,3.60
2023-07-02T17:28:35.730Z,3.85
2023-07-02T17:31:04.592Z,4.03
2023-07-02T17:33:32.577Z,3.63
2023-07-02T17:36:00.500Z,4.07
2023-07-02T17:38:28.267Z,3.58
2023-07-02T17:40:56.064Z,4.13
2023-07-02T17:43:25.305Z,3.80
2023-07-02T17:45:56.644Z,4.25
2023-07-02T17:48:26.597Z,3.58
2023-07-02T17:50:58.981Z,3.65
2023-07-02T17:53:28.622Z,3.47
2023-07-02T17:55:56.626Z,3.28
2023-07-02T17:58:25.953Z,3.70
2023-07-02T18:00:54.082Z,3.47
2023-07-02T18:03:23.327Z,3.72
2023-07-02T18:05:51.807Z,3.30
2023-07-02T18:08:19.829Z,3.75
2023-07-02T18:10:50.158Z,4.15
2023-07-02T18:13:21.080Z,3.70
2023-07-02T18:15:52.371Z,3.33
2023-07-02T18:18:21.233Z,3.60
2023-07-02T18:20:50.544Z,3.45
2023-07-02T18:23:18.444Z,3.55
2023-07-02T18:25:46.477Z,3.03
2023-07-02T18:28:15.907Z,3.70
2023-07-02T18:30:44.865Z,3.40
2023-07-02T18:33:14.832Z,3.30
2023-07-02T18:35:43.586Z,3.38
2023-07-02T18:38:12.118Z,3.58
2023-07-02T18:40:40.102Z,3.35
2023-07-02T18:43:08.038Z,3.38
2023-07-02T18:45:35.885Z,3.40
2023-07-02T18:48:04.663Z,3.65
2023-07-02T18:50:33.765Z,3.50
2023-07-02T18:53:02.096Z,3.33
2023-07-02T18:55:29.940Z,3.38
2023-07-02T18:57:58.264Z,3.30
2023-07-02T19:00:26.049Z,3.20
2023-07-02T19:02:54.266Z,3.80
2023-07-02T19:05:24.964Z,3.55
2023-07-02T19:07:54.663Z,3.45
2023-07-02T19:10:22.800Z,3.38
2023-07-02T19:12:50.582Z,2.95
2023-07-02T19:15:18.292Z,3.28
2023-07-02T19:17:46.184Z,3.17
2023-07-02T19:20:16.953Z,3.13
2023-07-02T19:22:44.800Z,3.47
2023-07-02T19:25:14.470Z,3.70
2023-07-02T19:27:42.630Z,3.30
2023-07-02T19:30:10.921Z,3.97
2023-07-02T19:32:38.759Z,3.03
2023-07-02T19:35:08.554Z,3.45
2023-07-02T19:37:36.603Z,3.10
2023-07-02T19:40:05.111Z,3.38
2023-07-02T19:42:34.630Z,3.47
2023-07-02T19:45:02.908Z,3.08
2023-07-02T19:47:32.271Z,3.35
2023-07-02T19:50:01.810Z,3.40
2023-07-02T19:52:31.955Z,3.65
2023-07-02T19:55:02.606Z,3.42
2023-07-02T19:57:30.687Z,3.45
2023-07-02T20:00:01.716Z,3.70
2023-07-02T20:02:29.891Z,3.05
2023-07-02T20:04:59.449Z,3.33
2023-07-02T20:07:28.827Z,4.20
2023-07-02T20:09:57.253Z,3.17
2023-07-02T20:12:29.096Z,3.28
2023-07-02T20:14:59.458Z,3.22
2023-07-02T20:17:27.993Z,4.00
2023-07-02T20:19:56.561Z,3.63
2023-07-02T20:22:24.954Z,3.58
2023-07-02T20:24:53.084Z,3.55
2023-07-02T20:27:21.981Z,3.22
2023-07-02T20:29:51.034Z,3.10
2023-07-02T20:32:21.522Z,3.28
2023-07-02T20:34:50.176Z,3.00
2023-07-02T20:37:18.188Z,3.28
2023-07-02T20:39:46.280Z,3.20
2023-07-02T20:42:14.106Z,3.00
2023-07-02T20:44:41.818Z,3.08
2023-07-02T20:47:10.307Z,3.30
2023-07-02T20:49:39.591Z,2.92
2023-07-02T20:52:08.071Z,2.65
2023-07-02T20:54:36.192Z,3.60
2023-07-02T20:57:04.223Z,2.70
2023-07-02T20:59:31.967Z,3.05
2023-07-02T21:01:59.725Z,2.97
2023-07-02T21:04:27.499Z,3.08
2023-07-02T21:06:56.666Z,3.30
2023-07-02T21:09:25.360Z,2.97
2023-07-02T21:11:53.086Z,2.90
2023-07-02T21:14:20.798Z,4.57
2023-07-02T21:16:50.173Z,4.18
2023-07-02T21:19:18.008Z,4.18
2023-07-02T21:21:47.097Z,3.28
2023-07-02T21:24:17.241Z,3.38
2023-07-02T21:26:45.382Z,3.10
2023-07-02T21:29:13.373Z,3.13
2023-07-02T21:31:41.142Z,3.65
2023-07-02T21:34:08.903Z,2.92
2023-07-02T21:36:37.545Z,3.45
2023-07-02T21:39:05.390Z,3.38
2023-07-02T21:41:36.392Z,3.45
2023-07-02T21:44:04.189Z,3.47
2023-07-02T21:46:32.390Z,3.50
2023-07-02T21:49:00.163Z,3.38
2023-07-02T21:51:27.899Z,3.25
2023-07-02T21:53:55.791Z,3.13
2023-07-02T21:56:23.671Z,3.17
2023-07-02T21:58:52.751Z,3.50
2023-07-02T22:01:20.582Z,3.38
2023-07-02T22:03:48.349Z,2.97
2023-07-02T22:06:16.034Z,3.70
2023-07-02T22:08:43.774Z,3.75
2023-07-02T22:11:23.197Z,3.08
2023-07-02T22:13:53.420Z,3.45
2023-07-02T22:16:21.900Z,3.35
2023-07-02T22:18:51.773Z,3.33
2023-07-02T22:21:19.844Z,3.40
2023-07-02T22:23:49.142Z,3.05
2023-07-02T22:26:17.069Z,3.28
2023-07-02T22:28:44.912Z,3.70
2023-07-02T22:31:14.087Z,3.42
2023-07-02T22:33:41.811Z,3.30
2023-07-02T22:36:09.896Z,3.50
2023-07-02T22:38:37.722Z,3.80
2023-07-02T22:41:05.682Z,3.65
2023-07-02T22:43:33.477Z,3.33
2023-07-02T22:46:01.254Z,3.35
2023-07-02T22:48:30.480Z,3.67
2023-07-02T22:50:58.922Z,3.47
2023-07-02T22:53:26.833Z,3.40
2023-07-02T22:55:54.734Z,3.67
2023-07-02T22:58:22.591Z,3.90
2023-07-02T23:00:52.154Z,3.72
2023-07-02T23:03:20.219Z,3.40
2023-07-02T23:05:49.737Z,2.90
2023-07-02T23:08:17.760Z,3.28
2023-07-02T23:10:45.880Z,3.58
2023-07-02T23:13:13.681Z,3.40
2023-07-02T23:15:41.456Z,2.78
2023-07-02T23:18:09.485Z,3.72
2023-07-02T23:20:38.067Z,3.92
2023-07-02T23:23:07.990Z,3.58
2023-07-02T23:25:36.216Z,3.85
2023-07-02T23:28:04.558Z,3.25
2023-07-02T23:30:35.713Z,4.05
2023-07-02T23:33:06.603Z,3.30
2023-07-02T23:35:35.197Z,3.40
2023-07-02T23:38:04.852Z,3.83
2023-07-02T23:40:35.659Z,3.85
2023-07-02T23:43:04.028Z,3.95
2023-07-02T23:45:31.986Z,4.10
2023-07-02T23:47:59.918Z,3.88
2023-07-02T23:50:28.142Z,3.13
2023-07-02T23:52:56.048Z,4.07
2023-07-02T23:55:23.975Z,3.60
2023-07-02T23:57:53.097Z,3.90
